sensor_id;sensor_type;location;lat;lon;timestamp;P1;durP1;ratioP1;P2;durP2;ratioP2
72115;SDS011;59991;52.140;5.428;2023-04-24T00:00:14;1.33;;;1.23;;
72115;SDS011;59991;52.140;5.428;2023-04-24T00:00:46;1.58;;;1.48;;
72115;SDS011;59991;52.140;5.428;2023-04-24T00:01:18;2.03;;;1.92;;
72115;SDS011;59991;52.140;5.428;2023-04-24T00:01:50;1.88;;;1.42;;
72115;SDS011;59991;52.140;5.428;2023-04-24T00:02:22;1.55;;;1.15;;
72115;SDS011;59991;52.140;5.428;2023-04-24T00:02:54;1.38;;;0.90;;
72115;SDS011;59991;52.140;5.428;2023-04-24T00:03:28;1.30;;;1.20;;
72115;SDS011;59991;52.140;5.428;2023-04-24T00:04:01;1.65;;;1.20;;
72115;SDS011;59991;52.140;5.428;2023-04-24T00:04:34;1.75;;;1.10;;
72115;SDS011;59991;52.140;5.428;2023-04-24T00:05:07;1.40;;;1.30;;
72115;SDS011;59991;52.140;5.428;2023-04-24T00:05:39;1.10;;;1.00;;
72115;SDS011;59991;52.140;5.428;2023-04-24T00:06:11;1.25;;;1.15;;
72115;SDS011;59991;52.140;5.428;2023-04-24T00:06:42;1.50;;;1.40;;
72115;SDS011;59991;52.140;5.428;2023-04-24T00:07:15;1.33;;;1.23;;
72115;SDS011;59991;52.140;5.428;2023-04-24T00:07:51;1.40;;;1.30;;
72115;SDS011;59991;52.140;5.428;2023-04-24T00:08:26;1.70;;;1.55;;
72115;SDS011;59991;52.140;5.428;2023-04-24T00:08:57;1.80;;;1.70;;
72115;SDS011;59991;52.140;5.428;2023-04-24T00:09:29;1.80;;;1.70;;
72115;SDS011;59991;52.140;5.428;2023-04-24T00:10:00;2.20;;;2.00;;
72115;SDS011;59991;52.140;5.428;2023-04-24T00:10:32;15.63;;;2.93;;
72115;SDS011;59991;52.140;5.428;2023-04-24T00:11:03;1.92;;;1.23;;
72115;SDS011;59991;52.140;5.428;2023-04-24T00:11:35;1.90;;;1.33;;
72115;SDS011;59991;52.140;5.428;2023-04-24T00:12:07;2.78;;;1.80;;
72115;SDS011;59991;52.140;5.428;2023-04-24T00:12:39;1.33;;;0.93;;
72115;SDS011;59991;52.140;5.428;2023-04-24T00:13:10;1.20;;;1.10;;
72115;SDS011;59991;52.140;5.428;2023-04-24T00:13:42;1.92;;;1.80;;
72115;SDS011;59991;52.140;5.428;2023-04-24T00:14:13;1.08;;;1.08;;
72115;SDS011;59991;52.140;5.428;2023-04-24T00:14:45;1.50;;;1.40;;
72115;SDS011;59991;52.140;5.428;2023-04-24T00:15:16;1.42;;;1.33;;
72115;SDS011;59991;52.140;5.428;2023-04-24T00:15:48;2.13;;;1.30;;
72115;SDS011;59991;52.140;5.428;2023-04-24T00:16:19;1.50;;;1.40;;
72115;SDS011;59991;52.140;5.428;2023-04-24T00:16:51;1.88;;;1.10;;
72115;SDS011;59991;52.140;5.428;2023-04-24T00:17:22;4.30;;;1.30;;
72115;SDS011;59991;52.140;5.428;2023-04-24T00:17:54;1.52;;;1.42;;
72115;SDS011;59991;52.140;5.428;2023-04-24T00:18:26;2.72;;;1.88;;
72115;SDS011;59991;52.140;5.428;2023-04-24T00:18:57;1.75;;;1.30;;
72115;SDS011;59991;52.140;5.428;2023-04-24T00:19:29;1.88;;;1.77;;
72115;SDS011;59991;52.140;5.428;2023-04-24T00:20:01;1.63;;;1.52;;
72115;SDS011;59991;52.140;5.428;2023-04-24T00:20:35;1.48;;;1.13;;
72115;SDS011;59991;52.140;5.428;2023-04-24T00:21:07;3.30;;;1.20;;
72115;SDS011;59991;52.140;5.428;2023-04-24T00:21:39;2.35;;;1.15;;
72115;SDS011;59991;52.140;5.428;2023-04-24T00:22:11;1.70;;;1.35;;
72115;SDS011;59991;52.140;5.428;2023-04-24T00:22:44;1.65;;;1.55;;
72115;SDS011;59991;52.140;5.428;2023-04-24T00:23:15;2.45;;;2.35;;
72115;SDS011;59991;52.140;5.428;2023-04-24T00:23:47;1.95;;;1.55;;
72115;SDS011;59991;52.140;5.428;2023-04-24T00:24:19;2.05;;;1.67;;
72115;SDS011;59991;52.140;5.428;2023-04-24T00:24:51;6.82;;;2.53;;
72115;SDS011;59991;52.140;5.428;2023-04-24T00:25:22;3.05;;;1.83;;
72115;SDS011;59991;52.140;5.428;2023-04-24T00:25:54;1.70;;;1.60;;
72115;SDS011;59991;52.140;5.428;2023-04-24T00:26:25;2.27;;;1.93;;
72115;SDS011;59991;52.140;5.428;2023-04-24T00:26:57;2.63;;;1.90;;
72115;SDS011;59991;52.140;5.428;2023-04-24T00:27:28;2.00;;;1.80;;
72115;SDS011;59991;52.140;5.428;2023-04-24T00:28:00;1.85;;;1.75;;
72115;SDS011;59991;52.140;5.428;2023-04-24T00:28:31;1.75;;;1.65;;
72115;SDS011;59991;52.140;5.428;2023-04-24T00:29:03;2.30;;;2.20;;
72115;SDS011;59991;52.140;5.428;2023-04-24T00:29:34;1.65;;;1.55;;
72115;SDS011;59991;52.140;5.428;2023-04-24T00:30:06;2.03;;;1.92;;
72115;SDS011;59991;52.140;5.428;2023-04-24T00:30:38;2.25;;;2.08;;
72115;SDS011;59991;52.140;5.428;2023-04-24T00:31:09;1.80;;;1.70;;
72115;SDS011;59991;52.140;5.428;2023-04-24T00:31:41;2.20;;;2.10;;
72115;SDS011;59991;52.140;5.428;2023-04-24T00:32:13;2.35;;;1.85;;
72115;SDS011;59991;52.140;5.428;2023-04-24T00:32:45;2.20;;;1.70;;
72115;SDS011;59991;52.140;5.428;2023-04-24T00:33:16;1.67;;;1.58;;
72115;SDS011;59991;52.140;5.428;2023-04-24T00:34:05;2.47;;;1.85;;
72115;SDS011;59991;52.140;5.428;2023-04-24T00:34:36;2.15;;;1.65;;
72115;SDS011;59991;52.140;5.428;2023-04-24T00:35:08;1.60;;;1.50;;
72115;SDS011;59991;52.140;5.428;2023-04-24T00:35:39;2.28;;;2.17;;
72115;SDS011;59991;52.140;5.428;2023-04-24T00:36:11;2.50;;;2.28;;
72115;SDS011;59991;52.140;5.428;2023-04-24T00:36:43;2.13;;;1.85;;
72115;SDS011;59991;52.140;5.428;2023-04-24T00:37:14;2.53;;;2.23;;
72115;SDS011;59991;52.140;5.428;2023-04-24T00:37:46;1.77;;;1.67;;
72115;SDS011;59991;52.140;5.428;2023-04-24T00:38:18;2.13;;;2.03;;
72115;SDS011;59991;52.140;5.428;2023-04-24T00:38:49;1.85;;;1.75;;
72115;SDS011;59991;52.140;5.428;2023-04-24T00:39:21;2.63;;;2.15;;
72115;SDS011;59991;52.140;5.428;2023-04-24T00:39:54;1.83;;;1.73;;
72115;SDS011;59991;52.140;5.428;2023-04-24T00:40:27;2.63;;;1.60;;
72115;SDS011;59991;52.140;5.428;2023-04-24T00:40:59;2.15;;;1.58;;
72115;SDS011;59991;52.140;5.428;2023-04-24T00:41:31;2.92;;;2.05;;
72115;SDS011;59991;52.140;5.428;2023-04-24T00:42:03;2.25;;;1.30;;
72115;SDS011;59991;52.140;5.428;2023-04-24T00:42:37;2.30;;;2.10;;
72115;SDS011;59991;52.140;5.428;2023-04-24T00:43:08;1.98;;;1.83;;
72115;SDS011;59991;52.140;5.428;2023-04-24T00:43:40;2.35;;;2.15;;
72115;SDS011;59991;52.140;5.428;2023-04-24T00:44:12;2.15;;;2.05;;
72115;SDS011;59991;52.140;5.428;2023-04-24T00:44:43;2.08;;;1.98;;
72115;SDS011;59991;52.140;5.428;2023-04-24T00:45:15;2.13;;;2.03;;
72115;SDS011;59991;52.140;5.428;2023-04-24T00:45:47;1.83;;;1.73;;
72115;SDS011;59991;52.140;5.428;2023-04-24T00:46:18;2.42;;;2.33;;
72115;SDS011;59991;52.140;5.428;2023-04-24T00:46:50;2.70;;;2.50;;
72115;SDS011;59991;52.140;5.428;2023-04-24T00:47:25;2.33;;;1.77;;
72115;SDS011;59991;52.140;5.428;2023-04-24T00:47:58;2.07;;;1.90;;
72115;SDS011;59991;52.140;5.428;2023-04-24T00:48:31;1.95;;;1.85;;
72115;SDS011;59991;52.140;5.428;2023-04-24T00:49:02;2.58;;;1.90;;
72115;SDS011;59991;52.140;5.428;2023-04-24T00:49:35;2.25;;;2.15;;
72115;SDS011;59991;52.140;5.428;2023-04-24T00:50:25;2.00;;;1.80;;
72115;SDS011;59991;52.140;5.428;2023-04-24T00:50:57;2.97;;;2.78;;
72115;SDS011;59991;52.140;5.428;2023-04-24T00:51:29;1.88;;;1.77;;
72115;SDS011;59991;52.140;5.428;2023-04-24T00:52:02;3.92;;;2.63;;
72115;SDS011;59991;52.140;5.428;2023-04-24T00:52:33;2.70;;;2.50;;
72115;SDS011;59991;52.140;5.428;2023-04-24T00:53:05;2.17;;;2.08;;
72115;SDS011;59991;52.140;5.428;2023-04-24T00:53:37;3.63;;;2.63;;
72115;SDS011;59991;52.140;5.428;2023-04-24T00:54:08;1.98;;;1.88;;
72115;SDS011;59991;52.140;5.428;2023-04-24T00:54:40;2.10;;;2.00;;
72115;SDS011;59991;52.140;5.428;2023-04-24T00:55:11;3.00;;;2.80;;
72115;SDS011;59991;52.140;5.428;2023-04-24T00:55:43;2.90;;;2.55;;
72115;SDS011;59991;52.140;5.428;2023-04-24T00:56:14;2.22;;;2.13;;
72115;SDS011;59991;52.140;5.428;2023-04-24T00:56:46;2.45;;;2.25;;
72115;SDS011;59991;52.140;5.428;2023-04-24T00:57:18;2.78;;;2.35;;
72115;SDS011;59991;52.140;5.428;2023-04-24T00:57:49;2.30;;;2.20;;
72115;SDS011;59991;52.140;5.428;2023-04-24T00:58:22;4.32;;;2.08;;
72115;SDS011;59991;52.140;5.428;2023-04-24T00:58:53;3.17;;;2.87;;
72115;SDS011;59991;52.140;5.428;2023-04-24T00:59:25;2.83;;;2.60;;
72115;SDS011;59991;52.140;5.428;2023-04-24T00:59:57;3.03;;;2.83;;
72115;SDS011;59991;52.140;5.428;2023-04-24T01:00:28;2.85;;;2.38;;
72115;SDS011;59991;52.140;5.428;2023-04-24T01:01:01;2.90;;;2.60;;
72115;SDS011;59991;52.140;5.428;2023-04-24T01:01:33;3.03;;;2.67;;
72115;SDS011;59991;52.140;5.428;2023-04-24T01:02:06;2.83;;;2.63;;
72115;SDS011;59991;52.140;5.428;2023-04-24T01:02:43;2.95;;;2.75;;
72115;SDS011;59991;52.140;5.428;2023-04-24T01:03:16;3.22;;;3.03;;
72115;SDS011;59991;52.140;5.428;2023-04-24T01:03:50;2.85;;;2.65;;
72115;SDS011;59991;52.140;5.428;2023-04-24T01:04:23;2.80;;;2.60;;
72115;SDS011;59991;52.140;5.428;2023-04-24T01:04:55;2.80;;;2.60;;
72115;SDS011;59991;52.140;5.428;2023-04-24T01:05:27;3.50;;;3.10;;
72115;SDS011;59991;52.140;5.428;2023-04-24T01:05:59;3.13;;;2.90;;
72115;SDS011;59991;52.140;5.428;2023-04-24T01:06:31;2.88;;;2.67;;
72115;SDS011;59991;52.140;5.428;2023-04-24T01:07:03;2.97;;;2.25;;
72115;SDS011;59991;52.140;5.428;2023-04-24T01:07:36;3.17;;;2.97;;
72115;SDS011;59991;52.140;5.428;2023-04-24T01:08:08;3.60;;;3.40;;
72115;SDS011;59991;52.140;5.428;2023-04-24T01:08:39;2.55;;;2.35;;
72115;SDS011;59991;52.140;5.428;2023-04-24T01:09:11;3.72;;;3.30;;
72115;SDS011;59991;52.140;5.428;2023-04-24T01:09:45;3.33;;;3.13;;
72115;SDS011;59991;52.140;5.428;2023-04-24T01:10:20;3.05;;;2.58;;
72115;SDS011;59991;52.140;5.428;2023-04-24T01:10:52;3.28;;;3.00;;
72115;SDS011;59991;52.140;5.428;2023-04-24T01:11:23;4.00;;;3.13;;
72115;SDS011;59991;52.140;5.428;2023-04-24T01:11:56;3.30;;;3.08;;
72115;SDS011;59991;52.140;5.428;2023-04-24T01:12:27;4.20;;;3.38;;
72115;SDS011;59991;52.140;5.428;2023-04-24T01:12:59;3.17;;;2.97;;
72115;SDS011;59991;52.140;5.428;2023-04-24T01:13:31;3.33;;;3.13;;
72115;SDS011;59991;52.140;5.428;2023-04-24T01:14:03;3.90;;;3.50;;
72115;SDS011;59991;52.140;5.428;2023-04-24T01:14:36;3.42;;;3.00;;
72115;SDS011;59991;52.140;5.428;2023-04-24T01:15:07;3.03;;;2.60;;
72115;SDS011;59991;52.140;5.428;2023-04-24T01:15:39;3.80;;;3.50;;
72115;SDS011;59991;52.140;5.428;2023-04-24T01:16:11;3.22;;;2.92;;
72115;SDS011;59991;52.140;5.428;2023-04-24T01:16:43;4.65;;;3.33;;
72115;SDS011;59991;52.140;5.428;2023-04-24T01:17:14;4.18;;;3.25;;
72115;SDS011;59991;52.140;5.428;2023-04-24T01:17:46;3.38;;;3.17;;
72115;SDS011;59991;52.140;5.428;2023-04-24T01:18:18;3.53;;;2.97;;
72115;SDS011;59991;52.140;5.428;2023-04-24T01:18:49;3.85;;;3.55;;
72115;SDS011;59991;52.140;5.428;2023-04-24T01:19:21;3.80;;;3.08;;
72115;SDS011;59991;52.140;5.428;2023-04-24T01:19:52;3.40;;;3.20;;
72115;SDS011;59991;52.140;5.428;2023-04-24T01:20:27;3.87;;;3.57;;
72115;SDS011;59991;52.140;5.428;2023-04-24T01:21:02;3.22;;;3.03;;
72115;SDS011;59991;52.140;5.428;2023-04-24T01:21:36;3.70;;;3.45;;
72115;SDS011;59991;52.140;5.428;2023-04-24T01:22:09;3.67;;;3.40;;
72115;SDS011;59991;52.140;5.428;2023-04-24T01:22:42;4.07;;;3.72;;
72115;SDS011;59991;52.140;5.428;2023-04-24T01:23:14;3.50;;;3.20;;
72115;SDS011;59991;52.140;5.428;2023-04-24T01:23:46;3.50;;;3.30;;
72115;SDS011;59991;52.140;5.428;2023-04-24T01:24:18;4.10;;;3.80;;
72115;SDS011;59991;52.140;5.428;2023-04-24T01:24:50;3.20;;;3.00;;
72115;SDS011;59991;52.140;5.428;2023-04-24T01:25:23;4.93;;;3.65;;
72115;SDS011;59991;52.140;5.428;2023-04-24T01:25:57;3.60;;;3.30;;
72115;SDS011;59991;52.140;5.428;2023-04-24T01:26:28;3.70;;;3.40;;
72115;SDS011;59991;52.140;5.428;2023-04-24T01:27:00;3.67;;;3.38;;
72115;SDS011;59991;52.140;5.428;2023-04-24T01:27:32;3.72;;;3.42;;
72115;SDS011;59991;52.140;5.428;2023-04-24T01:28:03;3.80;;;3.22;;
72115;SDS011;59991;52.140;5.428;2023-04-24T01:28:35;3.80;;;3.17;;
72115;SDS011;59991;52.140;5.428;2023-04-24T01:29:08;3.65;;;3.35;;
72115;SDS011;59991;52.140;5.428;2023-04-24T01:29:41;3.95;;;3.55;;
72115;SDS011;59991;52.140;5.428;2023-04-24T01:30:13;3.50;;;3.20;;
72115;SDS011;59991;52.140;5.428;2023-04-24T01:30:45;3.80;;;3.58;;
72115;SDS011;59991;52.140;5.428;2023-04-24T01:31:17;4.07;;;3.40;;
72115;SDS011;59991;52.140;5.428;2023-04-24T01:31:49;4.28;;;3.05;;
72115;SDS011;59991;52.140;5.428;2023-04-24T01:32:21;3.45;;;3.15;;
72115;SDS011;59991;52.140;5.428;2023-04-24T01:32:53;4.30;;;3.92;;
72115;SDS011;59991;52.140;5.428;2023-04-24T01:33:25;3.70;;;3.40;;
72115;SDS011;59991;52.140;5.428;2023-04-24T01:33:56;3.88;;;3.47;;
72115;SDS011;59991;52.140;5.428;2023-04-24T01:34:28;3.90;;;3.60;;
72115;SDS011;59991;52.140;5.428;2023-04-24T01:35:01;3.75;;;3.30;;
72115;SDS011;59991;52.140;5.428;2023-04-24T01:35:33;4.50;;;4.10;;
72115;SDS011;59991;52.140;5.428;2023-04-24T01:36:04;4.50;;;4.20;;
72115;SDS011;59991;52.140;5.428;2023-04-24T01:36:36;3.63;;;3.17;;
72115;SDS011;59991;52.140;5.428;2023-04-24T01:37:09;4.32;;;4.00;;
72115;SDS011;59991;52.140;5.428;2023-04-24T01:37:40;4.93;;;3.42;;
72115;SDS011;59991;52.140;5.428;2023-04-24T01:38:12;4.43;;;4.03;;
72115;SDS011;59991;52.140;5.428;2023-04-24T01:38:43;4.68;;;4.38;;
72115;SDS011;59991;52.140;5.428;2023-04-24T01:39:15;4.50;;;4.13;;
72115;SDS011;59991;52.140;5.428;2023-04-24T01:39:47;3.60;;;3.30;;
72115;SDS011;59991;52.140;5.428;2023-04-24T01:40:19;4.55;;;4.15;;
72115;SDS011;59991;52.140;5.428;2023-04-24T01:40:51;3.83;;;3.53;;
72115;SDS011;59991;52.140;5.428;2023-04-24T01:41:23;4.03;;;3.50;;
72115;SDS011;59991;52.140;5.428;2023-04-24T01:41:55;4.03;;;3.67;;
72115;SDS011;59991;52.140;5.428;2023-04-24T01:42:27;3.75;;;3.55;;
72115;SDS011;59991;52.140;5.428;2023-04-24T01:42:58;4.25;;;3.85;;
72115;SDS011;59991;52.140;5.428;2023-04-24T01:43:30;4.35;;;3.95;;
72115;SDS011;59991;52.140;5.428;2023-04-24T01:44:02;4.53;;;4.22;;
72115;SDS011;59991;52.140;5.428;2023-04-24T01:44:34;4.53;;;4.22;;
72115;SDS011;59991;52.140;5.428;2023-04-24T01:45:06;4.10;;;3.80;;
72115;SDS011;59991;52.140;5.428;2023-04-24T01:45:42;4.25;;;3.85;;
72115;SDS011;59991;52.140;5.428;2023-04-24T01:46:13;5.53;;;3.97;;
72115;SDS011;59991;52.140;5.428;2023-04-24T01:46:45;5.63;;;3.70;;
72115;SDS011;59991;52.140;5.428;2023-04-24T01:47:17;5.93;;;4.57;;
72115;SDS011;59991;52.140;5.428;2023-04-24T01:47:48;5.88;;;3.63;;
72115;SDS011;59991;52.140;5.428;2023-04-24T01:48:20;5.35;;;4.65;;
72115;SDS011;59991;52.140;5.428;2023-04-24T01:48:53;4.68;;;4.32;;
72115;SDS011;59991;52.140;5.428;2023-04-24T01:49:26;4.47;;;4.18;;
72115;SDS011;59991;52.140;5.428;2023-04-24T01:49:58;4.15;;;3.85;;
72115;SDS011;59991;52.140;5.428;2023-04-24T01:50:30;4.15;;;3.75;;
72115;SDS011;59991;52.140;5.428;2023-04-24T01:51:01;3.97;;;3.67;;
72115;SDS011;59991;52.140;5.428;2023-04-24T01:51:33;4.65;;;4.28;;
72115;SDS011;59991;52.140;5.428;2023-04-24T01:52:04;3.78;;;3.55;;
72115;SDS011;59991;52.140;5.428;2023-04-24T01:52:36;4.83;;;4.37;;
72115;SDS011;59991;52.140;5.428;2023-04-24T01:53:07;4.28;;;3.97;;
72115;SDS011;59991;52.140;5.428;2023-04-24T01:53:39;4.78;;;3.88;;
72115;SDS011;59991;52.140;5.428;2023-04-24T01:54:11;4.55;;;4.25;;
72115;SDS011;59991;52.140;5.428;2023-04-24T01:54:43;5.15;;;4.03;;
72115;SDS011;59991;52.140;5.428;2023-04-24T01:55:14;4.65;;;4.35;;
72115;SDS011;59991;52.140;5.428;2023-04-24T01:55:46;4.13;;;3.83;;
72115;SDS011;59991;52.140;5.428;2023-04-24T01:56:17;4.93;;;4.40;;
72115;SDS011;59991;52.140;5.428;2023-04-24T01:56:50;4.00;;;3.70;;
72115;SDS011;59991;52.140;5.428;2023-04-24T01:57:21;4.32;;;4.00;;
72115;SDS011;59991;52.140;5.428;2023-04-24T01:57:54;4.30;;;4.00;;
72115;SDS011;59991;52.140;5.428;2023-04-24T01:58:27;4.63;;;4.32;;
72115;SDS011;59991;52.140;5.428;2023-04-24T01:58:58;4.50;;;4.10;;
72115;SDS011;59991;52.140;5.428;2023-04-24T01:59:31;5.35;;;4.22;;
72115;SDS011;59991;52.140;5.428;2023-04-24T02:00:04;5.53;;;4.47;;
72115;SDS011;59991;52.140;5.428;2023-04-24T02:00:38;4.57;;;4.28;;
72115;SDS011;59991;52.140;5.428;2023-04-24T02:01:09;4.93;;;4.60;;
72115;SDS011;59991;52.140;5.428;2023-04-24T02:01:48;4.32;;;3.92;;
72115;SDS011;59991;52.140;5.428;2023-04-24T02:02:20;4.30;;;4.00;;
72115;SDS011;59991;52.140;5.428;2023-04-24T02:02:52;4.30;;;3.90;;
72115;SDS011;59991;52.140;5.428;2023-04-24T02:03:25;5.33;;;4.93;;
72115;SDS011;59991;52.140;5.428;2023-04-24T02:03:57;5.00;;;4.60;;
72115;SDS011;59991;52.140;5.428;2023-04-24T02:04:29;4.53;;;4.22;;
72115;SDS011;59991;52.140;5.428;2023-04-24T02:05:01;5.20;;;4.75;;
72115;SDS011;59991;52.140;5.428;2023-04-24T02:05:33;4.60;;;4.30;;
72115;SDS011;59991;52.140;5.428;2023-04-24T02:06:05;5.18;;;4.72;;
72115;SDS011;59991;52.140;5.428;2023-04-24T02:06:36;4.80;;;4.50;;
72115;SDS011;59991;52.140;5.428;2023-04-24T02:07:08;5.93;;;5.20;;
72115;SDS011;59991;52.140;5.428;2023-04-24T02:07:39;5.70;;;4.88;;
72115;SDS011;59991;52.140;5.428;2023-04-24T02:08:11;4.85;;;4.45;;
72115;SDS011;59991;52.140;5.428;2023-04-24T02:08:43;5.13;;;4.73;;
72115;SDS011;59991;52.140;5.428;2023-04-24T02:09:14;5.40;;;4.95;;
72115;SDS011;59991;52.140;5.428;2023-04-24T02:09:46;6.88;;;6.28;;
72115;SDS011;59991;52.140;5.428;2023-04-24T02:10:17;6.22;;;5.72;;
72115;SDS011;59991;52.140;5.428;2023-04-24T02:10:49;5.53;;;5.05;;
72115;SDS011;59991;52.140;5.428;2023-04-24T02:11:21;6.70;;;6.05;;
72115;SDS011;59991;52.140;5.428;2023-04-24T02:11:52;5.40;;;5.00;;
72115;SDS011;59991;52.140;5.428;2023-04-24T02:12:23;4.75;;;4.45;;
72115;SDS011;59991;52.140;5.428;2023-04-24T02:12:55;4.95;;;4.55;;
72115;SDS011;59991;52.140;5.428;2023-04-24T02:13:26;5.13;;;4.72;;
72115;SDS011;59991;52.140;5.428;2023-04-24T02:13:58;5.20;;;4.80;;
72115;SDS011;59991;52.140;5.428;2023-04-24T02:14:29;6.70;;;4.95;;
72115;SDS011;59991;52.140;5.428;2023-04-24T02:15:01;4.75;;;4.35;;
72115;SDS011;59991;52.140;5.428;2023-04-24T02:15:33;6.30;;;4.72;;
72115;SDS011;59991;52.140;5.428;2023-04-24T02:16:04;5.05;;;4.55;;
72115;SDS011;59991;52.140;5.428;2023-04-24T02:16:36;5.03;;;4.50;;
72115;SDS011;59991;52.140;5.428;2023-04-24T02:17:07;5.03;;;4.65;;
72115;SDS011;59991;52.140;5.428;2023-04-24T02:17:39;4.68;;;4.30;;
72115;SDS011;59991;52.140;5.428;2023-04-24T02:18:10;4.63;;;4.25;;
72115;SDS011;59991;52.140;5.428;2023-04-24T02:18:43;5.20;;;4.80;;
72115;SDS011;59991;52.140;5.428;2023-04-24T02:19:15;4.63;;;4.20;;
72115;SDS011;59991;52.140;5.428;2023-04-24T02:19:46;5.35;;;4.95;;
72115;SDS011;59991;52.140;5.428;2023-04-24T02:20:18;5.18;;;4.68;;
72115;SDS011;59991;52.140;5.428;2023-04-24T02:20:49;5.25;;;4.82;;
72115;SDS011;59991;52.140;5.428;2023-04-24T02:21:21;5.82;;;5.30;;
72115;SDS011;59991;52.140;5.428;2023-04-24T02:21:53;5.40;;;5.00;;
72115;SDS011;59991;52.140;5.428;2023-04-24T02:22:24;4.85;;;4.45;;
72115;SDS011;59991;52.140;5.428;2023-04-24T02:22:56;7.20;;;5.00;;
72115;SDS011;59991;52.140;5.428;2023-04-24T02:23:27;5.80;;;5.30;;
72115;SDS011;59991;52.140;5.428;2023-04-24T02:23:59;5.55;;;5.18;;
72115;SDS011;59991;52.140;5.428;2023-04-24T02:24:31;4.77;;;4.37;;
72115;SDS011;59991;52.140;5.428;2023-04-24T02:25:02;5.68;;;4.75;;
72115;SDS011;59991;52.140;5.428;2023-04-24T02:25:34;5.20;;;4.90;;
72115;SDS011;59991;52.140;5.428;2023-04-24T02:26:06;4.93;;;4.63;;
72115;SDS011;59991;52.140;5.428;2023-04-24T02:26:37;4.65;;;4.35;;
72115;SDS011;59991;52.140;5.428;2023-04-24T02:27:09;5.43;;;4.55;;
72115;SDS011;59991;52.140;5.428;2023-04-24T02:27:41;4.78;;;4.47;;
72115;SDS011;59991;52.140;5.428;2023-04-24T02:28:12;5.20;;;4.70;;
72115;SDS011;59991;52.140;5.428;2023-04-24T02:28:44;5.22;;;4.75;;
72115;SDS011;59991;52.140;5.428;2023-04-24T02:29:15;4.68;;;4.38;;
72115;SDS011;59991;52.140;5.428;2023-04-24T02:29:47;4.43;;;4.13;;
72115;SDS011;59991;52.140;5.428;2023-04-24T02:30:18;4.57;;;4.28;;
72115;SDS011;59991;52.140;5.428;2023-04-24T02:30:50;5.65;;;5.25;;
72115;SDS011;59991;52.140;5.428;2023-04-24T02:31:22;5.18;;;4.82;;
72115;SDS011;59991;52.140;5.428;2023-04-24T02:31:53;5.10;;;4.70;;
72115;SDS011;59991;52.140;5.428;2023-04-24T02:32:25;4.82;;;4.43;;
72115;SDS011;59991;52.140;5.428;2023-04-24T02:32:57;4.47;;;4.07;;
72115;SDS011;59991;52.140;5.428;2023-04-24T02:33:28;5.00;;;4.45;;
72115;SDS011;59991;52.140;5.428;2023-04-24T02:34:00;4.47;;;4.18;;
72115;SDS011;59991;52.140;5.428;2023-04-24T02:34:31;4.07;;;3.78;;
72115;SDS011;59991;52.140;5.428;2023-04-24T02:35:03;4.77;;;4.00;;
72115;SDS011;59991;52.140;5.428;2023-04-24T02:35:35;4.50;;;4.20;;
72115;SDS011;59991;52.140;5.428;2023-04-24T02:36:06;4.28;;;4.03;;
72115;SDS011;59991;52.140;5.428;2023-04-24T02:36:38;4.07;;;3.78;;
72115;SDS011;59991;52.140;5.428;2023-04-24T02:37:09;4.82;;;4.43;;
72115;SDS011;59991;52.140;5.428;2023-04-24T02:37:41;4.68;;;4.38;;
72115;SDS011;59991;52.140;5.428;2023-04-24T02:38:12;4.22;;;3.90;;
72115;SDS011;59991;52.140;5.428;2023-04-24T02:38:44;7.50;;;4.93;;
72115;SDS011;59991;52.140;5.428;2023-04-24T02:39:15;4.72;;;4.35;;
72115;SDS011;59991;52.140;5.428;2023-04-24T02:39:49;4.18;;;3.88;;
72115;SDS011;59991;52.140;5.428;2023-04-24T02:40:21;4.80;;;4.10;;
72115;SDS011;59991;52.140;5.428;2023-04-24T02:40:52;4.43;;;4.13;;
72115;SDS011;59991;52.140;5.428;2023-04-24T02:41:24;4.18;;;3.90;;
72115;SDS011;59991;52.140;5.428;2023-04-24T02:41:55;4.63;;;4.32;;
72115;SDS011;59991;52.140;5.428;2023-04-24T02:42:27;4.68;;;4.38;;
72115;SDS011;59991;52.140;5.428;2023-04-24T02:42:58;4.05;;;3.75;;
72115;SDS011;59991;52.140;5.428;2023-04-24T02:43:30;4.57;;;4.18;;
72115;SDS011;59991;52.140;5.428;2023-04-24T02:44:01;3.92;;;3.63;;
72115;SDS011;59991;52.140;5.428;2023-04-24T02:44:32;4.95;;;4.20;;
72115;SDS011;59991;52.140;5.428;2023-04-24T02:45:04;4.50;;;4.10;;
72115;SDS011;59991;52.140;5.428;2023-04-24T02:45:36;4.20;;;3.90;;
72115;SDS011;59991;52.140;5.428;2023-04-24T02:46:09;3.92;;;3.70;;
72115;SDS011;59991;52.140;5.428;2023-04-24T02:46:40;4.47;;;3.58;;
72115;SDS011;59991;52.140;5.428;2023-04-24T02:47:13;4.72;;;4.30;;
72115;SDS011;59991;52.140;5.428;2023-04-24T02:47:44;4.32;;;4.03;;
72115;SDS011;59991;52.140;5.428;2023-04-24T02:48:16;4.60;;;4.13;;
72115;SDS011;59991;52.140;5.428;2023-04-24T02:48:48;4.45;;;3.90;;
72115;SDS011;59991;52.140;5.428;2023-04-24T02:49:19;4.07;;;3.75;;
72115;SDS011;59991;52.140;5.428;2023-04-24T02:49:51;4.95;;;4.55;;
72115;SDS011;59991;52.140;5.428;2023-04-24T02:50:22;4.60;;;3.38;;
72115;SDS011;59991;52.140;5.428;2023-04-24T02:50:53;4.50;;;4.10;;
72115;SDS011;59991;52.140;5.428;2023-04-24T02:51:25;4.57;;;3.90;;
72115;SDS011;59991;52.140;5.428;2023-04-24T02:51:57;4.75;;;4.30;;
72115;SDS011;59991;52.140;5.428;2023-04-24T02:52:29;4.03;;;3.72;;
72115;SDS011;59991;52.140;5.428;2023-04-24T02:53:00;3.95;;;3.55;;
72115;SDS011;59991;52.140;5.428;2023-04-24T02:53:32;4.68;;;4.20;;
72115;SDS011;59991;52.140;5.428;2023-04-24T02:54:04;4.53;;;4.22;;
72115;SDS011;59991;52.140;5.428;2023-04-24T02:54:35;5.20;;;4.60;;
72115;SDS011;59991;52.140;5.428;2023-04-24T02:55:07;4.55;;;4.07;;
72115;SDS011;59991;52.140;5.428;2023-04-24T02:55:39;4.38;;;4.07;;
72115;SDS011;59991;52.140;5.428;2023-04-24T02:56:10;4.43;;;3.87;;
72115;SDS011;59991;52.140;5.428;2023-04-24T02:56:43;4.40;;;4.10;;
72115;SDS011;59991;52.140;5.428;2023-04-24T02:57:14;4.75;;;4.45;;
72115;SDS011;59991;52.140;5.428;2023-04-24T02:57:46;4.70;;;4.30;;
72115;SDS011;59991;52.140;5.428;2023-04-24T02:58:17;4.47;;;4.18;;
72115;SDS011;59991;52.140;5.428;2023-04-24T02:58:51;5.13;;;4.63;;
72115;SDS011;59991;52.140;5.428;2023-04-24T02:59:22;4.65;;;4.32;;
72115;SDS011;59991;52.140;5.428;2023-04-24T02:59:54;4.82;;;4.50;;
72115;SDS011;59991;52.140;5.428;2023-04-24T03:00:25;5.18;;;4.78;;
72115;SDS011;59991;52.140;5.428;2023-04-24T03:00:57;4.97;;;4.60;;
72115;SDS011;59991;52.140;5.428;2023-04-24T03:01:28;5.23;;;4.80;;
72115;SDS011;59991;52.140;5.428;2023-04-24T03:02:00;4.90;;;4.50;;
72115;SDS011;59991;52.140;5.428;2023-04-24T03:02:32;4.70;;;4.30;;
72115;SDS011;59991;52.140;5.428;2023-04-24T03:03:04;4.70;;;4.40;;
72115;SDS011;59991;52.140;5.428;2023-04-24T03:03:36;5.03;;;4.60;;
72115;SDS011;59991;52.140;5.428;2023-04-24T03:04:09;5.22;;;4.57;;
72115;SDS011;59991;52.140;5.428;2023-04-24T03:04:41;4.40;;;4.00;;
72115;SDS011;59991;52.140;5.428;2023-04-24T03:05:16;4.80;;;4.40;;
72115;SDS011;59991;52.140;5.428;2023-04-24T03:05:48;4.95;;;4.65;;
72115;SDS011;59991;52.140;5.428;2023-04-24T03:06:20;4.47;;;4.07;;
72115;SDS011;59991;52.140;5.428;2023-04-24T03:06:52;5.23;;;4.87;;
72115;SDS011;59991;52.140;5.428;2023-04-24T03:07:25;4.57;;;4.28;;
72115;SDS011;59991;52.140;5.428;2023-04-24T03:07:57;5.22;;;4.72;;
72115;SDS011;59991;52.140;5.428;2023-04-24T03:08:28;5.15;;;4.75;;
72115;SDS011;59991;52.140;5.428;2023-04-24T03:09:00;5.55;;;4.82;;
72115;SDS011;59991;52.140;5.428;2023-04-24T03:09:32;5.30;;;4.80;;
72115;SDS011;59991;52.140;5.428;2023-04-24T03:10:04;5.20;;;4.80;;
72115;SDS011;59991;52.140;5.428;2023-04-24T03:10:36;4.88;;;4.47;;
72115;SDS011;59991;52.140;5.428;2023-04-24T03:11:08;4.80;;;4.40;;
72115;SDS011;59991;52.140;5.428;2023-04-24T03:11:39;5.20;;;4.80;;
72115;SDS011;59991;52.140;5.428;2023-04-24T03:12:11;4.80;;;4.40;;
72115;SDS011;59991;52.140;5.428;2023-04-24T03:12:43;4.63;;;4.32;;
72115;SDS011;59991;52.140;5.428;2023-04-24T03:13:15;4.85;;;4.22;;